sensor_id;sensor_type;location;lat;lon;timestamp;pressure;altitude;pressure_sealevel;temperature;humidity
61682;BME280;47577;43.610;25.010;2023-04-26T00:02:11;99403.75;;;11.37;79.83
61682;BME280;47577;43.610;25.010;2023-04-26T00:04:37;99402.81;;;11.38;79.39
61682;BME280;47577;43.610;25.010;2023-04-26T00:07:03;99416.88;;;11.40;79.77
61682;BME280;47577;43.610;25.010;2023-04-26T00:09:29;99408.50;;;11.30;79.63
61682;BME280;47577;43.610;25.010;2023-04-26T00:11:55;99415.13;;;11.23;79.59
61682;BME280;47577;43.610;25.010;2023-04-26T00:14:20;99401.81;;;11.23;79.99
61682;BME280;47577;43.610;25.010;2023-04-26T00:16:46;99399.38;;;11.19;80.58
61682;BME280;47577;43.610;25.010;2023-04-26T00:19:12;99401.72;;;11.25;79.86
61682;BME280;47577;43.610;25.010;2023-04-26T00:21:38;99410.56;;;11.25;79.90
61682;BME280;47577;43.610;25.010;2023-04-26T00:24:04;99415.88;;;11.25;79.65
61682;BME280;47577;43.610;25.010;2023-04-26T00:26:30;99407.13;;;11.23;79.66
61682;BME280;47577;43.610;25.010;2023-04-26T00:28:56;99404.63;;;11.20;80.17
61682;BME280;47577;43.610;25.010;2023-04-26T00:31:22;99399.22;;;11.22;79.55
61682;BME280;47577;43.610;25.010;2023-04-26T00:33:47;99393.59;;;11.10;80.12
61682;BME280;47577;43.610;25.010;2023-04-26T00:36:13;99404.00;;;11.15;79.26
61682;BME280;47577;43.610;25.010;2023-04-26T00:38:39;99400.44;;;11.16;79.41
61682;BME280;47577;43.610;25.010;2023-04-26T00:41:05;99392.75;;;11.10;79.48
61682;BME280;47577;43.610;25.010;2023-04-26T00:43:31;99387.34;;;11.11;79.23
61682;BME280;47577;43.610;25.010;2023-04-26T00:45:57;99391.47;;;11.17;79.66
61682;BME280;47577;43.610;25.010;2023-04-26T00:48:23;99387.19;;;11.14;79.40
61682;BME280;47577;43.610;25.010;2023-04-26T00:50:48;99386.47;;;11.11;79.95
61682;BME280;47577;43.610;25.010;2023-04-26T00:53:15;99375.22;;;11.06;79.79
61682;BME280;47577;43.610;25.010;2023-04-26T00:55:42;99380.31;;;11.10;78.78
61682;BME280;47577;43.610;25.010;2023-04-26T00:58:09;99380.53;;;11.06;78.83
61682;BME280;47577;43.610;25.010;2023-04-26T01:00:34;99387.19;;;11.14;79.32
61682;BME280;47577;43.610;25.010;2023-04-26T01:03:00;99379.47;;;11.10;78.64
61682;BME280;47577;43.610;25.010;2023-04-26T01:05:26;99379.16;;;10.98;78.53
61682;BME280;47577;43.610;25.010;2023-04-26T01:07:52;99379.00;;;11.02;78.07
61682;BME280;47577;43.610;25.010;2023-04-26T01:10:17;99382.50;;;11.02;78.61
61682;BME280;47577;43.610;25.010;2023-04-26T01:12:43;99372.25;;;10.94;77.99
61682;BME280;47577;43.610;25.010;2023-04-26T01:15:09;99380.69;;;11.03;77.81
61682;BME280;47577;43.610;25.010;2023-04-26T01:17:35;99368.97;;;10.89;77.86
61682;BME280;47577;43.610;25.010;2023-04-26T01:20:03;99362.66;;;10.92;78.21
61682;BME280;47577;43.610;25.010;2023-04-26T01:22:32;99367.72;;;10.96;77.67
61682;BME280;47577;43.610;25.010;2023-04-26T01:25:00;99360.16;;;10.89;77.27
61682;BME280;47577;43.610;25.010;2023-04-26T01:27:28;99366.41;;;10.88;77.88
61682;BME280;47577;43.610;25.010;2023-04-26T01:29:54;99359.69;;;10.81;77.58
61682;BME280;47577;43.610;25.010;2023-04-26T01:32:19;99355.06;;;10.84;77.19
61682;BME280;47577;43.610;25.010;2023-04-26T01:34:45;99356.94;;;10.82;77.01
61682;BME280;47577;43.610;25.010;2023-04-26T01:37:11;99359.28;;;10.88;77.53
61682;BME280;47577;43.610;25.010;2023-04-26T01:39:37;99360.00;;;10.74;77.98
61682;BME280;47577;43.610;25.010;2023-04-26T01:42:03;99353.09;;;10.88;76.82
61682;BME280;47577;43.610;25.010;2023-04-26T01:44:29;99338.97;;;10.87;76.95
61682;BME280;47577;43.610;25.010;2023-04-26T01:46:55;99345.81;;;10.91;77.13
61682;BME280;47577;43.610;25.010;2023-04-26T01:49:21;99346.34;;;10.98;76.77
61682;BME280;47577;43.610;25.010;2023-04-26T01:51:47;99344.25;;;11.05;76.56
61682;BME280;47577;43.610;25.010;2023-04-26T01:54:13;99345.13;;;11.05;76.11
61682;BME280;47577;43.610;25.010;2023-04-26T01:56:38;99334.00;;;10.97;75.69
61682;BME280;47577;43.610;25.010;2023-04-26T01:59:04;99336.00;;;11.09;75.31
61682;BME280;47577;43.610;25.010;2023-04-26T02:01:29;99325.00;;;11.00;76.11
61682;BME280;47577;43.610;25.010;2023-04-26T02:03:55;99324.31;;;10.96;76.17
61682;BME280;47577;43.610;25.010;2023-04-26T02:06:21;99327.72;;;10.98;76.26
61682;BME280;47577;43.610;25.010;2023-04-26T02:08:47;99326.81;;;10.99;75.57
61682;BME280;47577;43.610;25.010;2023-04-26T02:11:13;99320.19;;;10.90;76.13
61682;BME280;47577;43.610;25.010;2023-04-26T02:13:39;99331.97;;;10.67;77.05
61682;BME280;47577;43.610;25.010;2023-04-26T02:16:05;99327.25;;;10.74;76.02
61682;BME280;47577;43.610;25.010;2023-04-26T02:18:32;99330.19;;;10.85;75.97
61682;BME280;47577;43.610;25.010;2023-04-26T02:20:57;99326.50;;;10.88;75.33
61682;BME280;47577;43.610;25.010;2023-04-26T02:23:23;99334.25;;;10.92;75.89
61682;BME280;47577;43.610;25.010;2023-04-26T02:25:48;99324.16;;;10.82;75.16
61682;BME280;47577;43.610;25.010;2023-04-26T02:28:16;99330.28;;;10.84;75.02
61682;BME280;47577;43.610;25.010;2023-04-26T02:30:41;99337.38;;;10.83;75.94
61682;BME280;47577;43.610;25.010;2023-04-26T02:33:07;99333.78;;;10.67;76.39
61682;BME280;47577;43.610;25.010;2023-04-26T02:35:36;99338.72;;;10.74;75.87
61682;BME280;47577;43.610;25.010;2023-04-26T02:38:02;99346.63;;;10.76;76.13
61682;BME280;47577;43.610;25.010;2023-04-26T02:40:28;99340.19;;;10.80;76.08
61682;BME280;47577;43.610;25.010;2023-04-26T02:42:55;99345.50;;;10.80;76.84
61682;BME280;47577;43.610;25.010;2023-04-26T02:45:20;99342.09;;;10.78;75.77
61682;BME280;47577;43.610;25.010;2023-04-26T02:47:46;99333.56;;;10.71;76.31
61682;BME280;47577;43.610;25.010;2023-04-26T02:50:12;99337.88;;;10.74;75.85
61682;BME280;47577;43.610;25.010;2023-04-26T02:52:37;99325.59;;;10.71;75.62
61682;BME280;47577;43.610;25.010;2023-04-26T02:55:03;99338.56;;;10.77;76.37
61682;BME280;47577;43.610;25.010;2023-04-26T02:57:31;99336.75;;;10.60;75.82
61682;BME280;47577;43.610;25.010;2023-04-26T02:59:57;99330.59;;;10.60;75.58
61682;BME280;47577;43.610;25.010;2023-04-26T03:02:22;99335.13;;;10.40;75.69
61682;BME280;47577;43.610;25.010;2023-04-26T03:04:48;99346.84;;;10.54;76.09
61682;BME280;47577;43.610;25.010;2023-04-26T03:07:14;99341.53;;;10.54;75.50
61682;BME280;47577;43.610;25.010;2023-04-26T03:09:40;99353.50;;;10.45;75.87
61682;BME280;47577;43.610;25.010;2023-04-26T03:12:06;99349.41;;;10.38;76.14
61682;BME280;47577;43.610;25.010;2023-04-26T03:14:32;99347.13;;;10.30;76.30
61682;BME280;47577;43.610;25.010;2023-04-26T03:16:58;99344.84;;;10.22;75.42
61682;BME280;47577;43.610;25.010;2023-04-26T03:19:24;99371.84;;;10.32;76.35
61682;BME280;47577;43.610;25.010;2023-04-26T03:21:51;99359.03;;;10.21;75.83
61682;BME280;47577;43.610;25.010;2023-04-26T03:24:16;99364.34;;;10.21;76.49
61682;BME280;47577;43.610;25.010;2023-04-26T03:26:42;99367.84;;;10.22;76.30
61682;BME280;47577;43.610;25.010;2023-04-26T03:29:08;99376.22;;;10.14;75.60
61682;BME280;47577;43.610;25.010;2023-04-26T03:31:33;99372.94;;;10.09;76.32
61682;BME280;47577;43.610;25.010;2023-04-26T03:33:59;99384.75;;;10.21;75.88
61682;BME280;47577;43.610;25.010;2023-04-26T03:36:25;99393.72;;;10.18;75.95
61682;BME280;47577;43.610;25.010;2023-04-26T03:38:53;99390.69;;;10.26;75.66
61682;BME280;47577;43.610;25.010;2023-04-26T03:41:18;99390.34;;;10.15;75.87
61682;BME280;47577;43.610;25.010;2023-04-26T03:43:44;99384.69;;;10.03;77.06
61682;BME280;47577;43.610;25.010;2023-04-26T03:46:09;99389.09;;;10.04;77.23
61682;BME280;47577;43.610;25.010;2023-04-26T03:48:35;99401.28;;;10.09;76.94
61682;BME280;47577;43.610;25.010;2023-04-26T03:51:01;99402.78;;;10.14;76.19
61682;BME280;47577;43.610;25.010;2023-04-26T03:53:27;99400.34;;;10.10;76.86
61682;BME280;47577;43.610;25.010;2023-04-26T03:55:53;99415.19;;;10.14;76.28
61682;BME280;47577;43.610;25.010;2023-04-26T03:58:18;99414.25;;;10.15;76.10
61682;BME280;47577;43.610;25.010;2023-04-26T04:00:44;99417.84;;;10.14;75.69
61682;BME280;47577;43.610;25.010;2023-04-26T04:03:10;99422.44;;;10.10;77.31
61682;BME280;47577;43.610;25.010;2023-04-26T04:05:36;99428.84;;;10.06;76.21
61682;BME280;47577;43.610;25.010;2023-04-26T04:08:02;99422.66;;;10.05;77.83
61682;BME280;47577;43.610;25.010;2023-04-26T04:10:28;99428.72;;;10.09;77.68
61682;BME280;47577;43.610;25.010;2023-04-26T04:12:54;99421.03;;;10.03;77.24
61682;BME280;47577;43.610;25.010;2023-04-26T04:15:20;99428.53;;;10.12;76.22
61682;BME280;47577;43.610;25.010;2023-04-26T04:17:46;99427.03;;;10.25;75.67
61682;BME280;47577;43.610;25.010;2023-04-26T04:20:12;99430.41;;;10.29;76.69
61682;BME280;47577;43.610;25.010;2023-04-26T04:22:38;99419.78;;;10.29;76.29
61682;BME280;47577;43.610;25.010;2023-04-26T04:25:08;99424.69;;;10.38;75.52
61682;BME280;47577;43.610;25.010;2023-04-26T04:27:38;99424.53;;;10.41;76.68
61682;BME280;47577;43.610;25.010;2023-04-26T04:30:04;99410.56;;;10.55;75.94
61682;BME280;47577;43.610;25.010;2023-04-26T04:32:32;99408.22;;;10.67;75.17
61682;BME280;47577;43.610;25.010;2023-04-26T04:34:58;99400.09;;;10.70;76.55
61682;BME280;47577;43.610;25.010;2023-04-26T04:37:24;99407.56;;;10.81;76.19
61682;BME280;47577;43.610;25.010;2023-04-26T04:39:53;99398.31;;;10.88;75.70
61682;BME280;47577;43.610;25.010;2023-04-26T04:42:19;99409.56;;;10.93;74.90
61682;BME280;47577;43.610;25.010;2023-04-26T04:44:46;99409.41;;;10.96;74.84
61682;BME280;47577;43.610;25.010;2023-04-26T04:47:12;99408.25;;;11.02;74.82
61682;BME280;47577;43.610;25.010;2023-04-26T04:49:38;99415.78;;;10.93;74.06
61682;BME280;47577;43.610;25.010;2023-04-26T04:52:04;99421.25;;;10.90;74.72
61682;BME280;47577;43.610;25.010;2023-04-26T04:54:30;99418.66;;;10.89;74.20
61682;BME280;47577;43.610;25.010;2023-04-26T04:56:56;99432.66;;;10.92;73.68
61682;BME280;47577;43.610;25.010;2023-04-26T04:59:22;99427.09;;;10.79;75.00
61682;BME280;47577;43.610;25.010;2023-04-26T05:01:48;99433.13;;;11.01;74.11
61682;BME280;47577;43.610;25.010;2023-04-26T05:04:14;99428.56;;;11.03;75.07
61682;BME280;47577;43.610;25.010;2023-04-26T05:06:40;99428.72;;;11.17;73.83
61682;BME280;47577;43.610;25.010;2023-04-26T05:09:07;99420.28;;;11.09;74.18
61682;BME280;47577;43.610;25.010;2023-04-26T05:11:33;99409.25;;;11.16;73.36
61682;BME280;47577;43.610;25.010;2023-04-26T05:13:59;99412.28;;;11.26;73.64
61682;BME280;47577;43.610;25.010;2023-04-26T05:16:25;99408.72;;;11.27;74.02
61682;BME280;47577;43.610;25.010;2023-04-26T05:18:50;99397.84;;;11.48;73.75
61682;BME280;47577;43.610;25.010;2023-04-26T05:21:16;99405.97;;;11.62;74.40
61682;BME280;47577;43.610;25.010;2023-04-26T05:23:42;99402.03;;;11.69;73.41
61682;BME280;47577;43.610;25.010;2023-04-26T05:26:12;99400.34;;;11.84;72.51
61682;BME280;47577;43.610;25.010;2023-04-26T05:28:37;99401.03;;;11.88;73.90
61682;BME280;47577;43.610;25.010;2023-04-26T05:31:03;99401.31;;;11.99;73.61
61682;BME280;47577;43.610;25.010;2023-04-26T05:33:29;99403.09;;;12.15;71.38
61682;BME280;47577;43.610;25.010;2023-04-26T05:35:55;99404.16;;;12.12;70.44
61682;BME280;47577;43.610;25.010;2023-04-26T05:38:22;99400.34;;;12.16;70.20
61682;BME280;47577;43.610;25.010;2023-04-26T05:40:48;99406.41;;;12.20;71.84
61682;BME280;47577;43.610;25.010;2023-04-26T05:43:14;99395.56;;;12.23;70.92
61682;BME280;47577;43.610;25.010;2023-04-26T05:45:39;99412.66;;;12.35;71.71
61682;BME280;47577;43.610;25.010;2023-04-26T05:48:05;99421.94;;;12.43;69.56
61682;BME280;47577;43.610;25.010;2023-04-26T05:50:31;99413.16;;;12.57;69.05
61682;BME280;47577;43.610;25.010;2023-04-26T05:52:57;99416.22;;;12.66;68.83
61682;BME280;47577;43.610;25.010;2023-04-26T05:55:22;99409.16;;;12.65;68.30
61682;BME280;47577;43.610;25.010;2023-04-26T05:57:48;99420.16;;;12.74;65.68
61682;BME280;47577;43.610;25.010;2023-04-26T06:00:14;99414.44;;;12.96;67.75
61682;BME280;47577;43.610;25.010;2023-04-26T06:02:41;99399.72;;;12.89;66.52
61682;BME280;47577;43.610;25.010;2023-04-26T06:05:06;99408.81;;;13.01;68.57
61682;BME280;47577;43.610;25.010;2023-04-26T06:07:33;99410.75;;;13.13;63.84
61682;BME280;47577;43.610;25.010;2023-04-26T06:10:02;99401.72;;;13.16;67.45
61682;BME280;47577;43.610;25.010;2023-04-26T06:12:27;99402.38;;;13.20;63.85
61682;BME280;47577;43.610;25.010;2023-04-26T06:14:53;99419.28;;;13.20;65.45
61682;BME280;47577;43.610;25.010;2023-04-26T06:17:18;99408.28;;;13.25;62.97
61682;BME280;47577;43.610;25.010;2023-04-26T06:19:45;99409.13;;;13.11;64.12
61682;BME280;47577;43.610;25.010;2023-04-26T06:22:10;99403.09;;;13.38;67.07
61682;BME280;47577;43.610;25.010;2023-04-26T06:24:36;99416.66;;;13.49;64.25
61682;BME280;47577;43.610;25.010;2023-04-26T06:27:01;99410.47;;;13.63;65.45
61682;BME280;47577;43.610;25.010;2023-04-26T06:29:31;99420.28;;;13.48;64.44
61682;BME280;47577;43.610;25.010;2023-04-26T06:31:57;99420.47;;;13.45;65.93
61682;BME280;47577;43.610;25.010;2023-04-26T06:34:22;99419.50;;;13.46;64.33
61682;BME280;47577;43.610;25.010;2023-04-26T06:36:48;99417.22;;;13.40;64.90
61682;BME280;47577;43.610;25.010;2023-04-26T06:39:14;99412.47;;;13.45;64.55
61682;BME280;47577;43.610;25.010;2023-04-26T06:41:39;99415.34;;;13.70;63.60
61682;BME280;47577;43.610;25.010;2023-04-26T06:44:05;99405.88;;;13.65;62.64
61682;BME280;47577;43.610;25.010;2023-04-26T06:46:34;99415.53;;;13.67;65.36
61682;BME280;47577;43.610;25.010;2023-04-26T06:49:00;99408.94;;;13.73;62.91
61682;BME280;47577;43.610;25.010;2023-04-26T06:51:26;99398.72;;;13.65;62.31
61682;BME280;47577;43.610;25.010;2023-04-26T06:53:53;99414.75;;;13.80;64.15
61682;BME280;47577;43.610;25.010;2023-04-26T06:56:19;99411.03;;;13.82;61.93
61682;BME280;47577;43.610;25.010;2023-04-26T06:59:01;99422.38;;;13.86;62.23
61682;BME280;47577;43.610;25.010;2023-04-26T07:01:28;99430.66;;;13.96;60.37
61682;BME280;47577;43.610;25.010;2023-04-26T07:03:55;99437.81;;;14.24;62.81
61682;BME280;47577;43.610;25.010;2023-04-26T07:06:24;99432.66;;;14.21;61.04
61682;BME280;47577;43.610;25.010;2023-04-26T07:08:50;99433.72;;;13.75;60.23
61682;BME280;47577;43.610;25.010;2023-04-26T07:11:16;99426.59;;;13.76;61.66
61682;BME280;47577;43.610;25.010;2023-04-26T07:13:42;99444.50;;;13.45;61.35
61682;BME280;47577;43.610;25.010;2023-04-26T07:16:07;99451.38;;;13.63;60.82
61682;BME280;47577;43.610;25.010;2023-04-26T07:18:33;99448.13;;;13.58;62.92
61682;BME280;47577;43.610;25.010;2023-04-26T07:20:59;99439.94;;;13.90;62.69
61682;BME280;47577;43.610;25.010;2023-04-26T07:23:24;99436.00;;;14.10;64.06
61682;BME280;47577;43.610;25.010;2023-04-26T07:25:50;99432.72;;;14.34;62.00
61682;BME280;47577;43.610;25.010;2023-04-26T07:28:16;99438.88;;;13.93;60.47
61682;BME280;47577;43.610;25.010;2023-04-26T07:30:42;99448.78;;;14.19;61.97
61682;BME280;47577;43.610;25.010;2023-04-26T07:33:08;99445.97;;;14.50;61.50
61682;BME280;47577;43.610;25.010;2023-04-26T07:35:33;99449.09;;;14.56;60.01
61682;BME280;47577;43.610;25.010;2023-04-26T07:38:00;99438.59;;;14.53;58.59
61682;BME280;47577;43.610;25.010;2023-04-26T07:40:26;99438.06;;;14.34;59.68
61682;BME280;47577;43.610;25.010;2023-04-26T07:42:53;99454.34;;;14.58;60.53
61682;BME280;47577;43.610;25.010;2023-04-26T07:45:20;99444.59;;;14.57;60.50
61682;BME280;47577;43.610;25.010;2023-04-26T07:47:46;99449.56;;;14.63;58.64
61682;BME280;47577;43.610;25.010;2023-04-26T07:50:12;99447.25;;;14.71;61.13
61682;BME280;47577;43.610;25.010;2023-04-26T07:52:38;99451.41;;;14.75;59.65
61682;BME280;47577;43.610;25.010;2023-04-26T07:55:04;99448.25;;;14.41;59.92
61682;BME280;47577;43.610;25.010;2023-04-26T07:57:30;99455.38;;;14.55;58.04
61682;BME280;47577;43.610;25.010;2023-04-26T07:59:56;99447.25;;;14.57;61.11
61682;BME280;47577;43.610;25.010;2023-04-26T08:02:22;99450.13;;;14.54;59.97
61682;BME280;47577;43.610;25.010;2023-04-26T08:04:49;99455.56;;;14.52;59.10
61682;BME280;47577;43.610;25.010;2023-04-26T08:07:19;99446.06;;;14.48;60.15
61682;BME280;47577;43.610;25.010;2023-04-26T08:09:45;99427.88;;;14.68;61.68
61682;BME280;47577;43.610;25.010;2023-04-26T08:12:11;99440.66;;;14.90;60.54
61682;BME280;47577;43.610;25.010;2023-04-26T08:14:37;99446.56;;;14.95;60.64
61682;BME280;47577;43.610;25.010;2023-04-26T08:17:03;99443.25;;;15.04;61.13
61682;BME280;47577;43.610;25.010;2023-04-26T08:19:29;99443.91;;;15.08;57.58
61682;BME280;47577;43.610;25.010;2023-04-26T08:21:58;99440.34;;;14.94;58.83
61682;BME280;47577;43.610;25.010;2023-04-26T08:24:25;99442.47;;;14.89;57.42
61682;BME280;47577;43.610;25.010;2023-04-26T08:26:50;99428.34;;;14.87;59.88
61682;BME280;47577;43.610;25.010;2023-04-26T08:29:16;99443.91;;;15.08;57.86
61682;BME280;47577;43.610;25.010;2023-04-26T08:31:42;99451.06;;;14.94;59.37
61682;BME280;47577;43.610;25.010;2023-04-26T08:34:08;99431.63;;;14.78;58.62
61682;BME280;47577;43.610;25.010;2023-04-26T08:36:41;99421.53;;;15.09;57.53
61682;BME280;47577;43.610;25.010;2023-04-26T08:39:08;99430.84;;;15.16;57.77
61682;BME280;47577;43.610;25.010;2023-04-26T08:41:41;99428.00;;;15.45;57.09
61682;BME280;47577;43.610;25.010;2023-04-26T08:44:08;99430.56;;;15.46;55.90
61682;BME280;47577;43.610;25.010;2023-04-26T08:46:47;99429.34;;;15.78;57.38
61682;BME280;47577;43.610;25.010;2023-04-26T08:49:21;99433.06;;;16.01;56.23
61682;BME280;47577;43.610;25.010;2023-04-26T08:51:54;99440.56;;;15.83;55.70
61682;BME280;47577;43.610;25.010;2023-04-26T08:54:21;99442.66;;;16.16;56.98
61682;BME280;47577;43.610;25.010;2023-04-26T08:56:47;99427.63;;;16.26;55.21
61682;BME280;47577;43.610;25.010;2023-04-26T08:59:14;99432.16;;;16.50;54.32
61682;BME280;47577;43.610;25.010;2023-04-26T09:01:41;99426.59;;;16.40;54.00
61682;BME280;47577;43.610;25.010;2023-04-26T09:04:08;99422.44;;;16.36;54.19
61682;BME280;47577;43.610;25.010;2023-04-26T09:06:34;99428.69;;;16.24;55.11
61682;BME280;47577;43.610;25.010;2023-04-26T09:09:02;99431.25;;;16.25;54.99
61682;BME280;47577;43.610;25.010;2023-04-26T09:11:51;99428.72;;;16.48;55.74
61682;BME280;47577;43.610;25.010;2023-04-26T09:14:18;99447.63;;;15.97;52.85
61682;BME280;47577;43.610;25.010;2023-04-26T09:16:44;99433.69;;;16.04;54.62
61682;BME280;47577;43.610;25.010;2023-04-26T09:19:09;99426.50;;;16.42;54.58
61682;BME280;47577;43.610;25.010;2023-04-26T09:21:45;99436.97;;;16.21;53.41
61682;BME280;47577;43.610;25.010;2023-04-26T09:24:12;99426.16;;;16.09;53.30
61682;BME280;47577;43.610;25.010;2023-04-26T09:26:39;99430.72;;;16.33;52.79
61682;BME280;47577;43.610;25.010;2023-04-26T09:29:15;99446.56;;;15.99;53.63
61682;BME280;47577;43.610;25.010;2023-04-26T09:31:46;99436.69;;;15.87;51.22
61682;BME280;47577;43.610;25.010;2023-04-26T09:34:13;99441.53;;;15.95;52.00
61682;BME280;47577;43.610;25.010;2023-04-26T09:36:55;99434.16;;;16.22;52.95
61682;BME280;47577;43.610;25.010;2023-04-26T09:39:33;99435.72;;;16.01;53.59
61682;BME280;47577;43.610;25.010;2023-04-26T09:41:59;99430.16;;;15.65;55.23
61682;BME280;47577;43.610;25.010;2023-04-26T09:44:28;99428.44;;;16.03;53.93
61682;BME280;47577;43.610;25.010;2023-04-26T09:47:05;99425.13;;;16.36;54.78
61682;BME280;47577;43.610;25.010;2023-04-26T09:49:49;99407.81;;;16.64;49.40
61682;BME280;47577;43.610;25.010;2023-04-26T09:52:17;99426.56;;;16.77;51.27
61682;BME280;47577;43.610;25.010;2023-04-26T09:54:52;99423.75;;;16.55;53.88
61682;BME280;47577;43.610;25.010;2023-04-26T09:57:19;99428.69;;;16.24;53.13
61682;BME280;47577;43.610;25.010;2023-04-26T09:59:49;99434.81;;;16.50;51.72
61682;BME280;47577;43.610;25.010;2023-04-26T10:02:22;99437.41;;;16.15;51.44
61682;BME280;47577;43.610;25.010;2023-04-26T10:04:49;99430.84;;;16.19;51.42
61682;BME280;47577;43.610;25.010;2023-04-26T10:07:17;99429.63;;;16.36;51.46
61682;BME280;47577;43.610;25.010;2023-04-26T10:09:43;99423.66;;;16.56;53.42
61682;BME280;47577;43.610;25.010;2023-04-26T10:12:14;99435.22;;;16.81;51.79
61682;BME280;47577;43.610;25.010;2023-04-26T10:14:41;99431.81;;;16.79;51.75
61682;BME280;47577;43.610;25.010;2023-04-26T10:17:07;99445.59;;;16.37;50.14
61682;BME280;47577;43.610;25.010;2023-04-26T10:19:34;99436.31;;;16.54;52.84
61682;BME280;47577;43.610;25.010;2023-04-26T10:22:04;99421.88;;;16.68;50.60
61682;BME280;47577;43.610;25.010;2023-04-26T10:24:31;99441.16;;;17.22;51.29
61682;BME280;47577;43.610;25.010;2023-04-26T10:26:56;99423.00;;;17.25;49.60
61682;BME280;47577;43.610;25.010;2023-04-26T10:29:24;99421.56;;;17.55;47.40
61682;BME280;47577;43.610;25.010;2023-04-26T10:34:30;99420.91;;;17.98;47.78
61682;BME280;47577;43.610;25.010;2023-04-26T10:37:15;99430.28;;;17.93;45.43
61682;BME280;47577;43.610;25.010;2023-04-26T10:39:43;99438.03;;;17.39;49.00
61682;BME280;47577;43.610;25.010;2023-04-26T10:47:40;99443.78;;;17.57;49.01
61682;BME280;47577;43.610;25.010;2023-04-26T10:50:10;99430.09;;;17.49;47.86
61682;BME280;47577;43.610;25.010;2023-04-26T10:52:37;99435.69;;;17.34;49.60
61682;BME280;47577;43.610;25.010;2023-04-26T10:55:04;99444.13;;;17.41;49.18
61682;BME280;47577;43.610;25.010;2023-04-26T11:00:19;99435.09;;;17.42;49.41
61682;BME280;47577;43.610;25.010;2023-04-26T11:08:03;99435.16;;;18.33;45.44
61682;BME280;47577;43.610;25.010;2023-04-26T11:10:29;99430.75;;;18.32;44.24
61682;BME280;47577;43.610;25.010;2023-04-26T11:12:59;99431.28;;;17.92;46.14
61682;BME280;47577;43.610;25.010;2023-04-26T11:15:25;99436.38;;;18.06;45.88
61682;BME280;47577;43.610;25.010;2023-04-26T11:17:51;99429.81;;;18.10;47.10
61682;BME280;47577;43.610;25.010;2023-04-26T11:20:17;99419.50;;;18.26;47.82
61682;BME280;47577;43.610;25.010;2023-04-26T11:22:42;99426.91;;;19.00;46.48
61682;BME280;47577;43.610;25.010;2023-04-26T11:25:08;99417.16;;;18.88;43.85
61682;BME280;47577;43.610;25.010;2023-04-26T11:27:36;99416.44;;;18.86;45.39
61682;BME280;47577;43.610;25.010;2023-04-26T11:30:05;99419.25;;;18.73;46.85
61682;BME280;47577;43.610;25.010;2023-04-26T11:32:32;99419.88;;;18.11;45.77
61682;BME280;47577;43.610;25.010;2023-04-26T11:34:59;99432.09;;;17.69;47.67
61682;BME280;47577;43.610;25.010;2023-04-26T11:37:25;99420.66;;;17.21;49.71
61682;BME280;47577;43.610;25.010;2023-04-26T11:39:51;99425.69;;;17.36;48.66
61682;BME280;47577;43.610;25.010;2023-04-26T11:42:16;99409.34;;;17.40;50.06
61682;BME280;47577;43.610;25.010;2023-04-26T11:44:42;99419.06;;;17.29;50.09
61682;BME280;47577;43.610;25.010;2023-04-26T11:47:08;99412.16;;;17.49;49.39
61682;BME280;47577;43.610;25.010;2023-04-26T11:49:37;99403.81;;;17.30;50.99
61682;BME280;47577;43.610;25.010;2023-04-26T11:52:03;99393.97;;;17.53;48.10
61682;BME280;47577;43.610;25.010;2023-04-26T11:54:34;99398.47;;;17.75;50.93
61682;BME280;47577;43.610;25.010;2023-04-26T11:57:00;99411.72;;;17.89;48.59
61682;BME280;47577;43.610;25.010;2023-04-26T11:59:37;99400.00;;;17.90;47.13
61682;BME280;47577;43.610;25.010;2023-04-26T12:02:05;99398.34;;;18.22;49.55
61682;BME280;47577;43.610;25.010;2023-04-26T12:04:31;99406.31;;;18.67;46.90
61682;BME280;47577;43.610;25.010;2023-04-26T12:06:58;99399.59;;;18.61;46.63
61682;BME280;47577;43.610;25.010;2023-04-26T12:09:25;99390.66;;;18.61;46.61
61682;BME280;47577;43.610;25.010;2023-04-26T12:12:03;99397.31;;;18.89;46.63
61682;BME280;47577;43.610;25.010;2023-04-26T12:14:38;99396.63;;;18.76;46.92
61682;BME280;47577;43.610;25.010;2023-04-26T12:17:05;99403.19;;;18.51;45.47
61682;BME280;47577;43.610;25.010;2023-04-26T12:19:32;99402.38;;;18.71;45.43
61682;BME280;47577;43.610;25.010;2023-04-26T12:21:58;99394.75;;;18.88;46.23
61682;BME280;47577;43.610;25.010;2023-04-26T12:24:26;99395.63;;;19.09;48.53
61682;BME280;47577;43.610;25.010;2023-04-26T12:26:54;99390.69;;;19.14;46.65
61682;BME280;47577;43.610;25.010;2023-04-26T12:29:20;99387.03;;;18.51;46.58
61682;BME280;47577;43.610;25.010;2023-04-26T12:31:45;99398.97;;;18.69;46.68
61682;BME280;47577;43.610;25.010;2023-04-26T12:34:11;99380.38;;;18.66;46.00
61682;BME280;47577;43.610;25.010;2023-04-26T12:36:39;99373.94;;;18.78;45.51
61682;BME280;47577;43.610;25.010;2023-04-26T12:39:05;99385.66;;;19.00;45.39
61682;BME280;47577;43.610;25.010;2023-04-26T12:41:31;99385.44;;;19.34;46.57
61682;BME280;47577;43.610;25.010;2023-04-26T12:43:56;99392.66;;;18.80;44.22
61682;BME280;47577;43.610;25.010;2023-04-26T12:46:22;99377.91;;;18.74;46.80
61682;BME280;47577;43.610;25.010;2023-04-26T12:48:48;99394.78;;;19.09;44.94
61682;BME280;47577;43.610;25.010;2023-04-26T12:51:14;99378.03;;;19.26;43.08
61682;BME280;47577;43.610;25.010;2023-04-26T12:53:39;99384.13;;;18.86;45.38
61682;BME280;47577;43.610;25.010;2023-04-26T12:56:05;99385.03;;;18.96;45.75
61682;BME280;47577;43.610;25.010;2023-04-26T12:58:31;99390.63;;;19.05;44.98
61682;BME280;47577;43.610;25.010;2023-04-26T13:00:57;99384.66;;;19.22;45.20
61682;BME280;47577;43.610;25.010;2023-04-26T13:03:22;99387.06;;;19.46;44.88
61682;BME280;47577;43.610;25.010;2023-04-26T13:05:48;99389.19;;;18.68;45.12